Terminal Aerodrome Forecast
Issued by NWS Cleveland, OH

Home | Current Version | Previous Version | Text Only | Print | Product List | Glossary Off
Versions: 1 2 3 4 5 6 7 8 9 10 11 12 13 14 15 16

000
FTUS41 KCLE 030322 AAA
TAFCAK
TAF AMD
KCAK 030322Z 0303/0324 03005KT P6SM SCT050
      TEMPO 0303/0305 BKN050
     FM030500 06005KT P6SM SCT250
      TEMPO 0309/0312 4SM BR
     FM031300 06008KT P6SM BKN250
     FM031900 03008KT P6SM SCT045 OVC250=

USA.gov is the U.S. government's official web portal to all federal, state and local government web resources and services.